sensor_id;sensor_type;location;lat;lon;timestamp;temperature;humidity
14529;DHT22;7351;51.194;4.098;2023-03-01T00:01:08;15.10;99.90
14529;DHT22;7351;51.194;4.098;2023-03-01T00:03:36;15.10;99.90
14529;DHT22;7351;51.194;4.098;2023-03-01T00:06:04;15.10;99.90
14529;DHT22;7351;51.194;4.098;2023-03-01T00:08:33;15.10;99.90
14529;DHT22;7351;51.194;4.098;2023-03-01T00:11:01;15.00;99.90
14529;DHT22;7351;51.194;4.098;2023-03-01T00:13:28;15.00;99.90
14529;DHT22;7351;51.194;4.098;2023-03-01T00:15:55;15.00;99.90
14529;DHT22;7351;51.194;4.098;2023-03-01T00:18:23;15.00;99.90
14529;DHT22;7351;51.194;4.098;2023-03-01T00:20:50;15.00;99.90
14529;DHT22;7351;51.194;4.098;2023-03-01T00:23:17;15.00;99.90
14529;DHT22;7351;51.194;4.098;2023-03-01T00:25:46;15.00;99.90
14529;DHT22;7351;51.194;4.098;2023-03-01T00:28:13;15.00;99.90
14529;DHT22;7351;51.194;4.098;2023-03-01T00:30:40;14.90;99.90
14529;DHT22;7351;51.194;4.098;2023-03-01T00:33:07;14.90;99.90
14529;DHT22;7351;51.194;4.098;2023-03-01T00:35:34;14.90;99.90
14529;DHT22;7351;51.194;4.098;2023-03-01T00:38:02;14.80;99.90
14529;DHT22;7351;51.194;4.098;2023-03-01T00:40:31;14.90;99.90
14529;DHT22;7351;51.194;4.098;2023-03-01T00:43:00;14.90;99.90
14529;DHT22;7351;51.194;4.098;2023-03-01T00:45:27;14.90;99.90
14529;DHT22;7351;51.194;4.098;2023-03-01T00:47:56;14.90;99.90
14529;DHT22;7351;51.194;4.098;2023-03-01T00:50:23;14.90;99.90
14529;DHT22;7351;51.194;4.098;2023-03-01T00:52:53;14.90;99.90
14529;DHT22;7351;51.194;4.098;2023-03-01T00:55:20;14.80;99.90
14529;DHT22;7351;51.194;4.098;2023-03-01T00:57:47;14.80;99.90
14529;DHT22;7351;51.194;4.098;2023-03-01T01:00:16;14.80;99.90
14529;DHT22;7351;51.194;4.098;2023-03-01T01:02:44;14.80;99.90
14529;DHT22;7351;51.194;4.098;2023-03-01T01:05:11;14.80;99.90
14529;DHT22;7351;51.194;4.098;2023-03-01T01:07:38;14.80;99.90
14529;DHT22;7351;51.194;4.098;2023-03-01T01:10:06;14.80;99.90
14529;DHT22;7351;51.194;4.098;2023-03-01T01:12:33;14.80;99.90
14529;DHT22;7351;51.194;4.098;2023-03-01T01:15:00;14.80;99.90
14529;DHT22;7351;51.194;4.098;2023-03-01T01:17:29;14.80;99.90
14529;DHT22;7351;51.194;4.098;2023-03-01T01:19:56;14.80;99.90
14529;DHT22;7351;51.194;4.098;2023-03-01T01:22:23;14.80;99.90
14529;DHT22;7351;51.194;4.098;2023-03-01T01:24:50;14.80;99.90
14529;DHT22;7351;51.194;4.098;2023-03-01T01:27:17;14.80;99.90
14529;DHT22;7351;51.194;4.098;2023-03-01T01:29:44;14.70;99.90
14529;DHT22;7351;51.194;4.098;2023-03-01T01:32:10;14.70;99.90
14529;DHT22;7351;51.194;4.098;2023-03-01T01:34:39;14.70;99.90
14529;DHT22;7351;51.194;4.098;2023-03-01T01:37:06;14.70;99.90
14529;DHT22;7351;51.194;4.098;2023-03-01T01:39:33;14.70;99.90
14529;DHT22;7351;51.194;4.098;2023-03-01T01:42:00;14.70;99.90
14529;DHT22;7351;51.194;4.098;2023-03-01T01:44:28;14.70;99.90
14529;DHT22;7351;51.194;4.098;2023-03-01T01:46:58;14.70;99.90
14529;DHT22;7351;51.194;4.098;2023-03-01T01:49:30;14.70;99.90
14529;DHT22;7351;51.194;4.098;2023-03-01T01:52:05;14.70;99.90
14529;DHT22;7351;51.194;4.098;2023-03-01T01:54:40;14.60;99.90
14529;DHT22;7351;51.194;4.098;2023-03-01T01:57:12;14.60;99.90
14529;DHT22;7351;51.194;4.098;2023-03-01T01:59:42;14.70;99.90
14529;DHT22;7351;51.194;4.098;2023-03-01T02:02:10;14.70;99.90
14529;DHT22;7351;51.194;4.098;2023-03-01T02:04:38;14.60;99.90
14529;DHT22;7351;51.194;4.098;2023-03-01T02:07:09;14.60;99.90
14529;DHT22;7351;51.194;4.098;2023-03-01T02:09:38;14.60;99.90
14529;DHT22;7351;51.194;4.098;2023-03-01T02:12:06;14.70;99.90
14529;DHT22;7351;51.194;4.098;2023-03-01T02:14:33;14.60;99.90
14529;DHT22;7351;51.194;4.098;2023-03-01T02:17:00;14.60;99.90
14529;DHT22;7351;51.194;4.098;2023-03-01T02:19:38;14.60;99.90
14529;DHT22;7351;51.194;4.098;2023-03-01T02:22:16;14.60;99.90
14529;DHT22;7351;51.194;4.098;2023-03-01T02:24:53;14.60;99.90
14529;DHT22;7351;51.194;4.098;2023-03-01T02:27:27;14.60;99.90
14529;DHT22;7351;51.194;4.098;2023-03-01T02:29:59;14.60;99.90
14529;DHT22;7351;51.194;4.098;2023-03-01T02:32:26;14.60;99.90
14529;DHT22;7351;51.194;4.098;2023-03-01T02:34:54;14.60;99.90
14529;DHT22;7351;51.194;4.098;2023-03-01T02:37:22;14.60;99.90
14529;DHT22;7351;51.194;4.098;2023-03-01T02:39:55;14.60;99.90
14529;DHT22;7351;51.194;4.098;2023-03-01T02:42:28;14.60;99.90
14529;DHT22;7351;51.194;4.098;2023-03-01T02:44:58;14.60;99.90
14529;DHT22;7351;51.194;4.098;2023-03-01T02:47:25;14.60;99.90
14529;DHT22;7351;51.194;4.098;2023-03-01T02:49:52;14.60;99.90
14529;DHT22;7351;51.194;4.098;2023-03-01T02:52:40;14.50;99.90
14529;DHT22;7351;51.194;4.098;2023-03-01T02:55:11;14.50;99.90
14529;DHT22;7351;51.194;4.098;2023-03-01T02:57:40;14.50;99.90
14529;DHT22;7351;51.194;4.098;2023-03-01T03:00:12;14.50;99.90
14529;DHT22;7351;51.194;4.098;2023-03-01T03:02:45;14.50;99.90
14529;DHT22;7351;51.194;4.098;2023-03-01T03:05:14;14.50;99.90
14529;DHT22;7351;51.194;4.098;2023-03-01T03:07:43;14.50;99.90
14529;DHT22;7351;51.194;4.098;2023-03-01T03:10:12;14.50;99.90
14529;DHT22;7351;51.194;4.098;2023-03-01T03:12:40;14.50;99.90
14529;DHT22;7351;51.194;4.098;2023-03-01T03:15:10;14.50;99.90
14529;DHT22;7351;51.194;4.098;2023-03-01T03:17:39;14.50;99.90
14529;DHT22;7351;51.194;4.098;2023-03-01T03:20:07;14.30;99.90
14529;DHT22;7351;51.194;4.098;2023-03-01T03:22:38;14.30;99.90
14529;DHT22;7351;51.194;4.098;2023-03-01T03:25:06;14.30;99.90
14529;DHT22;7351;51.194;4.098;2023-03-01T03:27:36;14.40;99.90
14529;DHT22;7351;51.194;4.098;2023-03-01T03:30:04;14.40;99.90
14529;DHT22;7351;51.194;4.098;2023-03-01T03:32:36;14.30;99.90
14529;DHT22;7351;51.194;4.098;2023-03-01T03:35:03;14.20;99.90
14529;DHT22;7351;51.194;4.098;2023-03-01T03:37:35;14.20;99.90
14529;DHT22;7351;51.194;4.098;2023-03-01T03:40:20;14.20;99.90
14529;DHT22;7351;51.194;4.098;2023-03-01T03:42:47;14.20;99.90
14529;DHT22;7351;51.194;4.098;2023-03-01T03:45:14;14.20;99.90
14529;DHT22;7351;51.194;4.098;2023-03-01T03:47:43;14.20;99.90
14529;DHT22;7351;51.194;4.098;2023-03-01T03:50:11;14.20;99.90
14529;DHT22;7351;51.194;4.098;2023-03-01T03:52:38;14.20;99.90
14529;DHT22;7351;51.194;4.098;2023-03-01T03:55:06;14.20;99.90
14529;DHT22;7351;51.194;4.098;2023-03-01T03:57:36;14.30;99.90
14529;DHT22;7351;51.194;4.098;2023-03-01T04:00:05;14.50;99.90
14529;DHT22;7351;51.194;4.098;2023-03-01T04:02:38;14.60;99.90
14529;DHT22;7351;51.194;4.098;2023-03-01T04:05:08;14.70;99.70
14529;DHT22;7351;51.194;4.098;2023-03-01T04:07:35;14.80;99.40
14529;DHT22;7351;51.194;4.098;2023-03-01T04:10:04;15.00;99.50
14529;DHT22;7351;51.194;4.098;2023-03-01T04:12:32;15.10;99.30
14529;DHT22;7351;51.194;4.098;2023-03-01T04:14:59;15.10;99.10
14529;DHT22;7351;51.194;4.098;2023-03-01T04:17:26;15.20;99.00
14529;DHT22;7351;51.194;4.098;2023-03-01T04:19:53;15.30;99.00
14529;DHT22;7351;51.194;4.098;2023-03-01T04:22:21;15.30;98.90
14529;DHT22;7351;51.194;4.098;2023-03-01T04:24:55;15.30;98.90
14529;DHT22;7351;51.194;4.098;2023-03-01T04:27:22;15.40;98.90
14529;DHT22;7351;51.194;4.098;2023-03-01T04:29:48;15.40;98.80
14529;DHT22;7351;51.194;4.098;2023-03-01T04:32:15;15.50;98.80
14529;DHT22;7351;51.194;4.098;2023-03-01T04:34:43;15.50;98.80
14529;DHT22;7351;51.194;4.098;2023-03-01T04:37:10;15.50;98.70
14529;DHT22;7351;51.194;4.098;2023-03-01T04:39:39;15.60;98.70
14529;DHT22;7351;51.194;4.098;2023-03-01T04:42:11;15.60;98.50
14529;DHT22;7351;51.194;4.098;2023-03-01T04:44:38;15.70;98.60
14529;DHT22;7351;51.194;4.098;2023-03-01T04:47:04;15.70;98.60
14529;DHT22;7351;51.194;4.098;2023-03-01T04:49:31;15.70;98.50
14529;DHT22;7351;51.194;4.098;2023-03-01T04:51:58;15.80;98.60
14529;DHT22;7351;51.194;4.098;2023-03-01T04:54:27;15.80;98.60
14529;DHT22;7351;51.194;4.098;2023-03-01T04:56:56;15.80;98.70
14529;DHT22;7351;51.194;4.098;2023-03-01T04:59:23;15.90;98.80
14529;DHT22;7351;51.194;4.098;2023-03-01T05:01:50;16.00;98.40
14529;DHT22;7351;51.194;4.098;2023-03-01T05:04:17;16.10;98.40
14529;DHT22;7351;51.194;4.098;2023-03-01T05:06:44;16.10;98.20
14529;DHT22;7351;51.194;4.098;2023-03-01T05:09:11;16.10;98.20
14529;DHT22;7351;51.194;4.098;2023-03-01T05:11:38;16.30;98.20
14529;DHT22;7351;51.194;4.098;2023-03-01T05:14:07;16.30;98.20
14529;DHT22;7351;51.194;4.098;2023-03-01T05:16:35;16.40;98.10
14529;DHT22;7351;51.194;4.098;2023-03-01T05:19:03;16.50;98.10
14529;DHT22;7351;51.194;4.098;2023-03-01T05:21:37;16.50;97.90
14529;DHT22;7351;51.194;4.098;2023-03-01T05:24:24;16.60;98.00
14529;DHT22;7351;51.194;4.098;2023-03-01T05:26:51;16.60;98.40
14529;DHT22;7351;51.194;4.098;2023-03-01T05:29:21;16.70;98.20
14529;DHT22;7351;51.194;4.098;2023-03-01T05:31:51;16.70;98.60
14529;DHT22;7351;51.194;4.098;2023-03-01T05:34:19;16.60;98.60
14529;DHT22;7351;51.194;4.098;2023-03-01T05:36:48;16.60;98.50
14529;DHT22;7351;51.194;4.098;2023-03-01T05:39:25;16.60;98.50
14529;DHT22;7351;51.194;4.098;2023-03-01T05:41:53;16.50;98.40
14529;DHT22;7351;51.194;4.098;2023-03-01T05:44:22;16.50;98.40
14529;DHT22;7351;51.194;4.098;2023-03-01T05:46:49;16.50;98.40
14529;DHT22;7351;51.194;4.098;2023-03-01T05:49:16;16.40;98.20
14529;DHT22;7351;51.194;4.098;2023-03-01T05:51:48;16.40;98.30
14529;DHT22;7351;51.194;4.098;2023-03-01T05:54:15;16.20;98.20
14529;DHT22;7351;51.194;4.098;2023-03-01T05:56:42;16.20;98.30
14529;DHT22;7351;51.194;4.098;2023-03-01T05:59:09;16.20;98.30
14529;DHT22;7351;51.194;4.098;2023-03-01T06:01:38;16.10;98.40
14529;DHT22;7351;51.194;4.098;2023-03-01T06:04:05;16.00;98.20
14529;DHT22;7351;51.194;4.098;2023-03-01T06:06:34;15.90;98.30
14529;DHT22;7351;51.194;4.098;2023-03-01T06:09:03;15.80;98.60
14529;DHT22;7351;51.194;4.098;2023-03-01T06:11:30;15.70;98.40
14529;DHT22;7351;51.194;4.098;2023-03-01T06:13:56;15.70;98.50
14529;DHT22;7351;51.194;4.098;2023-03-01T06:16:23;15.70;98.60
14529;DHT22;7351;51.194;4.098;2023-03-01T06:18:52;15.70;98.60
14529;DHT22;7351;51.194;4.098;2023-03-01T06:21:19;15.60;98.60
14529;DHT22;7351;51.194;4.098;2023-03-01T06:23:46;15.60;98.80
14529;DHT22;7351;51.194;4.098;2023-03-01T06:26:13;15.60;98.60
14529;DHT22;7351;51.194;4.098;2023-03-01T06:28:40;15.60;98.70
14529;DHT22;7351;51.194;4.098;2023-03-01T06:31:06;15.60;98.60
14529;DHT22;7351;51.194;4.098;2023-03-01T06:33:34;15.60;98.70
14529;DHT22;7351;51.194;4.098;2023-03-01T06:36:04;15.60;98.70
14529;DHT22;7351;51.194;4.098;2023-03-01T06:38:31;15.50;98.70
14529;DHT22;7351;51.194;4.098;2023-03-01T06:40:58;15.50;98.60
14529;DHT22;7351;51.194;4.098;2023-03-01T06:43:26;15.50;98.60
14529;DHT22;7351;51.194;4.098;2023-03-01T06:45:53;15.50;98.70
14529;DHT22;7351;51.194;4.098;2023-03-01T06:48:20;15.40;98.70
14529;DHT22;7351;51.194;4.098;2023-03-01T06:50:47;15.40;98.60
14529;DHT22;7351;51.194;4.098;2023-03-01T06:53:15;15.40;98.70
14529;DHT22;7351;51.194;4.098;2023-03-01T06:55:42;15.40;98.60
14529;DHT22;7351;51.194;4.098;2023-03-01T06:58:09;15.40;98.60
14529;DHT22;7351;51.194;4.098;2023-03-01T07:00:37;15.30;98.70
14529;DHT22;7351;51.194;4.098;2023-03-01T07:03:06;15.30;98.70
14529;DHT22;7351;51.194;4.098;2023-03-01T07:05:33;15.30;98.80
14529;DHT22;7351;51.194;4.098;2023-03-01T07:08:01;15.30;98.70
14529;DHT22;7351;51.194;4.098;2023-03-01T07:10:29;15.30;98.70
14529;DHT22;7351;51.194;4.098;2023-03-01T07:12:57;15.20;98.80
14529;DHT22;7351;51.194;4.098;2023-03-01T07:15:25;15.20;98.60
14529;DHT22;7351;51.194;4.098;2023-03-01T07:17:52;15.20;98.60
14529;DHT22;7351;51.194;4.098;2023-03-01T07:20:20;15.20;98.50
14529;DHT22;7351;51.194;4.098;2023-03-01T07:22:50;15.20;98.60
14529;DHT22;7351;51.194;4.098;2023-03-01T07:25:17;15.10;98.70
14529;DHT22;7351;51.194;4.098;2023-03-01T07:27:49;15.20;98.60
14529;DHT22;7351;51.194;4.098;2023-03-01T07:30:16;15.20;98.60
14529;DHT22;7351;51.194;4.098;2023-03-01T07:32:43;15.10;98.70
14529;DHT22;7351;51.194;4.098;2023-03-01T07:35:11;15.10;98.60
14529;DHT22;7351;51.194;4.098;2023-03-01T07:37:38;15.00;98.60
14529;DHT22;7351;51.194;4.098;2023-03-01T07:40:06;15.00;98.70
14529;DHT22;7351;51.194;4.098;2023-03-01T07:42:34;15.00;98.90
14529;DHT22;7351;51.194;4.098;2023-03-01T07:45:02;15.00;98.70
14529;DHT22;7351;51.194;4.098;2023-03-01T07:47:30;15.00;98.60
14529;DHT22;7351;51.194;4.098;2023-03-01T07:49:57;15.10;98.60
14529;DHT22;7351;51.194;4.098;2023-03-01T07:52:24;15.10;98.70
14529;DHT22;7351;51.194;4.098;2023-03-01T07:54:51;15.10;98.40
14529;DHT22;7351;51.194;4.098;2023-03-01T07:57:18;15.10;98.40
14529;DHT22;7351;51.194;4.098;2023-03-01T07:59:44;15.10;98.60
14529;DHT22;7351;51.194;4.098;2023-03-01T08:02:13;15.00;98.60
14529;DHT22;7351;51.194;4.098;2023-03-01T08:04:40;15.00;98.40
14529;DHT22;7351;51.194;4.098;2023-03-01T08:07:07;15.00;98.60
14529;DHT22;7351;51.194;4.098;2023-03-01T08:09:35;15.00;98.40
14529;DHT22;7351;51.194;4.098;2023-03-01T08:12:03;14.90;98.60
14529;DHT22;7351;51.194;4.098;2023-03-01T08:14:30;14.90;98.60
14529;DHT22;7351;51.194;4.098;2023-03-01T08:16:57;14.90;98.60
14529;DHT22;7351;51.194;4.098;2023-03-01T08:19:25;14.90;98.70
14529;DHT22;7351;51.194;4.098;2023-03-01T08:21:53;14.90;98.60
14529;DHT22;7351;51.194;4.098;2023-03-01T08:24:20;14.80;98.50
14529;DHT22;7351;51.194;4.098;2023-03-01T08:26:48;14.80;98.80
14529;DHT22;7351;51.194;4.098;2023-03-01T08:29:15;14.80;98.90
14529;DHT22;7351;51.194;4.098;2023-03-01T08:31:42;14.80;98.60
14529;DHT22;7351;51.194;4.098;2023-03-01T08:34:12;14.80;98.60
14529;DHT22;7351;51.194;4.098;2023-03-01T08:36:41;14.80;98.70
14529;DHT22;7351;51.194;4.098;2023-03-01T08:39:11;14.80;98.70
14529;DHT22;7351;51.194;4.098;2023-03-01T08:41:39;14.80;98.70
14529;DHT22;7351;51.194;4.098;2023-03-01T08:44:06;14.80;98.60
14529;DHT22;7351;51.194;4.098;2023-03-01T08:46:35;14.80;98.50
14529;DHT22;7351;51.194;4.098;2023-03-01T08:49:04;14.80;98.60
14529;DHT22;7351;51.194;4.098;2023-03-01T08:51:31;14.70;98.80
14529;DHT22;7351;51.194;4.098;2023-03-01T08:54:03;14.70;98.60
14529;DHT22;7351;51.194;4.098;2023-03-01T08:56:30;14.70;98.90
14529;DHT22;7351;51.194;4.098;2023-03-01T08:58:57;14.70;99.00
14529;DHT22;7351;51.194;4.098;2023-03-01T09:01:25;14.70;99.10
14529;DHT22;7351;51.194;4.098;2023-03-01T09:03:52;14.60;99.30
14529;DHT22;7351;51.194;4.098;2023-03-01T09:06:19;14.60;99.30
14529;DHT22;7351;51.194;4.098;2023-03-01T09:08:47;14.60;99.40
14529;DHT22;7351;51.194;4.098;2023-03-01T09:11:18;14.60;99.30
14529;DHT22;7351;51.194;4.098;2023-03-01T09:13:47;14.60;99.30
14529;DHT22;7351;51.194;4.098;2023-03-01T09:16:15;14.60;99.30
14529;DHT22;7351;51.194;4.098;2023-03-01T09:18:43;14.60;99.30
14529;DHT22;7351;51.194;4.098;2023-03-01T09:21:14;14.60;99.30
14529;DHT22;7351;51.194;4.098;2023-03-01T09:23:43;14.60;99.30
14529;DHT22;7351;51.194;4.098;2023-03-01T09:26:12;14.60;99.10
14529;DHT22;7351;51.194;4.098;2023-03-01T09:28:40;14.60;99.00
14529;DHT22;7351;51.194;4.098;2023-03-01T09:31:07;14.60;99.00
14529;DHT22;7351;51.194;4.098;2023-03-01T09:33:34;14.70;99.00
14529;DHT22;7351;51.194;4.098;2023-03-01T09:36:03;14.70;99.30
14529;DHT22;7351;51.194;4.098;2023-03-01T09:38:30;14.80;99.20
14529;DHT22;7351;51.194;4.098;2023-03-01T09:40:57;14.90;99.10
14529;DHT22;7351;51.194;4.098;2023-03-01T09:43:29;15.00;98.90
14529;DHT22;7351;51.194;4.098;2023-03-01T09:46:04;15.10;98.90
14529;DHT22;7351;51.194;4.098;2023-03-01T09:48:37;15.20;99.00
14529;DHT22;7351;51.194;4.098;2023-03-01T09:51:08;15.30;98.80
14529;DHT22;7351;51.194;4.098;2023-03-01T09:53:39;15.40;98.70
14529;DHT22;7351;51.194;4.098;2023-03-01T09:56:13;15.40;98.80
14529;DHT22;7351;51.194;4.098;2023-03-01T09:58:48;15.50;98.70
14529;DHT22;7351;51.194;4.098;2023-03-01T10:01:29;15.60;98.90
14529;DHT22;7351;51.194;4.098;2023-03-01T10:04:05;15.60;98.60
14529;DHT22;7351;51.194;4.098;2023-03-01T10:06:35;15.70;99.00
14529;DHT22;7351;51.194;4.098;2023-03-01T10:09:06;15.70;98.90
14529;DHT22;7351;51.194;4.098;2023-03-01T10:11:38;15.80;98.70
14529;DHT22;7351;51.194;4.098;2023-03-01T10:14:12;15.80;98.80
14529;DHT22;7351;51.194;4.098;2023-03-01T10:16:48;15.90;98.40
14529;DHT22;7351;51.194;4.098;2023-03-01T10:19:22;15.90;98.70
14529;DHT22;7351;51.194;4.098;2023-03-01T10:21:51;15.90;98.80
14529;DHT22;7351;51.194;4.098;2023-03-01T10:24:19;16.00;98.70
14529;DHT22;7351;51.194;4.098;2023-03-01T10:26:51;16.00;98.70
14529;DHT22;7351;51.194;4.098;2023-03-01T10:29:24;16.00;98.30
14529;DHT22;7351;51.194;4.098;2023-03-01T10:31:54;16.10;98.50
14529;DHT22;7351;51.194;4.098;2023-03-01T10:34:26;16.20;98.60
14529;DHT22;7351;51.194;4.098;2023-03-01T10:36:57;16.20;98.50
14529;DHT22;7351;51.194;4.098;2023-03-01T10:39:26;16.30;98.50
14529;DHT22;7351;51.194;4.098;2023-03-01T10:41:59;16.30;98.10
14529;DHT22;7351;51.194;4.098;2023-03-01T10:44:41;16.30;98.40
14529;DHT22;7351;51.194;4.098;2023-03-01T10:47:18;16.30;98.20
14529;DHT22;7351;51.194;4.098;2023-03-01T10:49:58;16.40;98.00
14529;DHT22;7351;51.194;4.098;2023-03-01T10:52:28;16.30;98.00
14529;DHT22;7351;51.194;4.098;2023-03-01T10:54:56;16.40;97.90
14529;DHT22;7351;51.194;4.098;2023-03-01T10:57:36;16.40;97.80
14529;DHT22;7351;51.194;4.098;2023-03-01T11:00:21;16.40;97.90
14529;DHT22;7351;51.194;4.098;2023-03-01T11:05:33;16.40;97.90
14529;DHT22;7351;51.194;4.098;2023-03-01T11:08:02;16.40;97.90
14529;DHT22;7351;51.194;4.098;2023-03-01T11:10:31;16.40;97.80
14529;DHT22;7351;51.194;4.098;2023-03-01T11:13:14;16.40;97.70
14529;DHT22;7351;51.194;4.098;2023-03-01T11:15:41;16.40;97.90
14529;DHT22;7351;51.194;4.098;2023-03-01T11:18:20;16.40;97.80
14529;DHT22;7351;51.194;4.098;2023-03-01T11:20:48;16.40;97.90
14529;DHT22;7351;51.194;4.098;2023-03-01T11:23:18;16.40;97.90
14529;DHT22;7351;51.194;4.098;2023-03-01T11:25:51;16.40;97.90
14529;DHT22;7351;51.194;4.098;2023-03-01T11:28:22;16.40;97.90
14529;DHT22;7351;51.194;4.098;2023-03-01T11:30:55;16.30;98.10
14529;DHT22;7351;51.194;4.098;2023-03-01T11:33:37;16.30;98.20
14529;DHT22;7351;51.194;4.098;2023-03-01T11:36:13;16.40;98.20
14529;DHT22;7351;51.194;4.098;2023-03-01T11:38:43;16.30;98.20
14529;DHT22;7351;51.194;4.098;2023-03-01T11:41:14;16.30;98.30
14529;DHT22;7351;51.194;4.098;2023-03-01T11:43:49;16.30;98.40
14529;DHT22;7351;51.194;4.098;2023-03-01T11:46:41;16.30;98.50
14529;DHT22;7351;51.194;4.098;2023-03-01T11:49:36;16.30;98.50
14529;DHT22;7351;51.194;4.098;2023-03-01T11:52:15;16.30;98.60
14529;DHT22;7351;51.194;4.098;2023-03-01T11:54:55;16.30;98.60
14529;DHT22;7351;51.194;4.098;2023-03-01T11:57:41;16.30;98.70
14529;DHT22;7351;51.194;4.098;2023-03-01T12:00:26;16.30;98.70
14529;DHT22;7351;51.194;4.098;2023-03-01T12:03:21;16.30;98.80
14529;DHT22;7351;51.194;4.098;2023-03-01T12:06:03;16.30;98.90
14529;DHT22;7351;51.194;4.098;2023-03-01T12:08:37;16.30;98.80
14529;DHT22;7351;51.194;4.098;2023-03-01T12:11:16;16.30;98.90
14529;DHT22;7351;51.194;4.098;2023-03-01T12:14:09;16.30;99.00
14529;DHT22;7351;51.194;4.098;2023-03-01T12:19:38;16.40;99.10
14529;DHT22;7351;51.194;4.098;2023-03-01T12:22:18;16.40;99.10
14529;DHT22;7351;51.194;4.098;2023-03-01T12:25:11;16.40;99.10
14529;DHT22;7351;51.194;4.098;2023-03-01T12:28:15;16.50;99.20
14529;DHT22;7351;51.194;4.098;2023-03-01T12:33:48;16.50;99.20
14529;DHT22;7351;51.194;4.098;2023-03-01T12:36:45;16.50;99.20
14529;DHT22;7351;51.194;4.098;2023-03-01T12:39:29;16.50;99.20
14529;DHT22;7351;51.194;4.098;2023-03-01T12:42:05;16.60;99.20
14529;DHT22;7351;51.194;4.098;2023-03-01T12:44:50;16.60;99.20
14529;DHT22;7351;51.194;4.098;2023-03-01T12:47:31;16.60;99.30
14529;DHT22;7351;51.194;4.098;2023-03-01T12:50:03;16.60;99.20
14529;DHT22;7351;51.194;4.098;2023-03-01T12:52:37;16.60;99.20
14529;DHT22;7351;51.194;4.098;2023-03-01T12:55:18;16.60;99.20
14529;DHT22;7351;51.194;4.098;2023-03-01T12:57:54;16.70;99.30
14529;DHT22;7351;51.194;4.098;2023-03-01T13:00:28;16.60;99.20
14529;DHT22;7351;51.194;4.098;2023-03-01T13:03:00;16.60;99.30
14529;DHT22;7351;51.194;4.098;2023-03-01T13:05:36;16.70;99.30
14529;DHT22;7351;51.194;4.098;2023-03-01T13:08:10;16.70;99.20
14529;DHT22;7351;51.194;4.098;2023-03-01T13:10:43;16.70;99.20
14529;DHT22;7351;51.194;4.098;2023-03-01T13:13:19;16.80;99.20
14529;DHT22;7351;51.194;4.098;2023-03-01T13:15:46;16.80;99.10
14529;DHT22;7351;51.194;4.098;2023-03-01T13:18:33;16.80;99.10
14529;DHT22;7351;51.194;4.098;2023-03-01T13:21:01;16.80;99.10
14529;DHT22;7351;51.194;4.098;2023-03-01T13:23:32;16.80;99.00
14529;DHT22;7351;51.194;4.098;2023-03-01T13:26:07;16.80;99.00
14529;DHT22;7351;51.194;4.098;2023-03-01T13:28:40;16.90;99.00
14529;DHT22;7351;51.194;4.098;2023-03-01T13:31:09;16.90;99.00
14529;DHT22;7351;51.194;4.098;2023-03-01T13:33:42;16.90;98.90
14529;DHT22;7351;51.194;4.098;2023-03-01T13:36:11;16.90;98.90
14529;DHT22;7351;51.194;4.098;2023-03-01T13:38:45;16.90;98.90
14529;DHT22;7351;51.194;4.098;2023-03-01T13:41:15;17.00;98.80
14529;DHT22;7351;51.194;4.098;2023-03-01T13:43:44;17.00;98.80
14529;DHT22;7351;51.194;4.098;2023-03-01T13:46:17;17.00;98.90
14529;DHT22;7351;51.194;4.098;2023-03-01T13:48:47;17.00;98.80
14529;DHT22;7351;51.194;4.098;2023-03-01T13:51:15;17.00;98.80
14529;DHT22;7351;51.194;4.098;2023-03-01T13:53:45;17.00;98.90
14529;DHT22;7351;51.194;4.098;2023-03-01T13:56:17;17.00;98.90
14529;DHT22;7351;51.194;4.098;2023-03-01T13:58:48;17.00;98.90
14529;DHT22;7351;51.194;4.098;2023-03-01T14:01:24;17.10;98.90
14529;DHT22;7351;51.194;4.098;2023-03-01T14:03:52;17.10;98.90
14529;DHT22;7351;51.194;4.098;2023-03-01T14:06:21;17.10;98.80
14529;DHT22;7351;51.194;4.098;2023-03-01T14:08:51;17.10;98.80
14529;DHT22;7351;51.194;4.098;2023-03-01T14:11:47;17.10;98.70
14529;DHT22;7351;51.194;4.098;2023-03-01T14:14:39;17.10;98.80
14529;DHT22;7351;51.194;4.098;2023-03-01T14:20:02;17.10;98.70
14529;DHT22;7351;51.194;4.098;2023-03-01T14:22:33;17.10;98.70
14529;DHT22;7351;51.194;4.098;2023-03-01T14:25:03;17.10;98.60
14529;DHT22;7351;51.194;4.098;2023-03-01T14:27:36;17.10;98.60
14529;DHT22;7351;51.194;4.098;2023-03-01T14:30:13;17.10;98.60
14529;DHT22;7351;51.194;4.098;2023-03-01T14:32:41;17.10;98.60
14529;DHT22;7351;51.194;4.098;2023-03-01T14:35:19;17.10;98.60
14529;DHT22;7351;51.194;4.098;2023-03-01T14:37:47;17.10;98.60
14529;DHT22;7351;51.194;4.098;2023-03-01T14:40:24;17.10;98.60
14529;DHT22;7351;51.194;4.098;2023-03-01T14:42:53;17.10;98.70
14529;DHT22;7351;51.194;4.098;2023-03-01T14:45:21;17.10;98.70
14529;DHT22;7351;51.194;4.098;2023-03-01T14:47:50;17.10;98.70
14529;DHT22;7351;51.194;4.098;2023-03-01T14:50:25;17.10;98.70
14529;DHT22;7351;51.194;4.098;2023-03-01T14:52:54;17.10;98.70
14529;DHT22;7351;51.194;4.098;2023-03-01T14:55:25;17.10;98.60
14529;DHT22;7351;51.194;4.098;2023-03-01T14:57:54;17.10;98.70
14529;DHT22;7351;51.194;4.098;2023-03-01T15:00:25;17.10;98.70
14529;DHT22;7351;51.194;4.098;2023-03-01T15:02:54;17.10;98.60
14529;DHT22;7351;51.194;4.098;2023-03-01T15:05:26;17.10;99.00
14529;DHT22;7351;51.194;4.098;2023-03-01T15:07:54;17.10;98.70
14529;DHT22;7351;51.194;4.098;2023-03-01T15:10:23;17.00;98.70
14529;DHT22;7351;51.194;4.098;2023-03-01T15:12:51;17.10;98.70
14529;DHT22;7351;51.194;4.098;2023-03-01T15:15:38;17.00;98.70
14529;DHT22;7351;51.194;4.098;2023-03-01T15:18:17;17.00;98.80
14529;DHT22;7351;51.194;4.098;2023-03-01T15:20:45;17.00;98.80
14529;DHT22;7351;51.194;4.098;2023-03-01T15:23:22;17.00;98.80
14529;DHT22;7351;51.194;4.098;2023-03-01T15:25:50;16.90;98.80
14529;DHT22;7351;51.194;4.098;2023-03-01T15:28:25;16.90;98.80
14529;DHT22;7351;51.194;4.098;2023-03-01T15:31:00;16.90;98.80
14529;DHT22;7351;51.194;4.098;2023-03-01T15:33:31;16.90;98.80
14529;DHT22;7351;51.194;4.098;2023-03-01T15:35:59;16.90;98.80
14529;DHT22;7351;51.194;4.098;2023-03-01T15:38:32;16.90;98.90
14529;DHT22;7351;51.194;4.098;2023-03-01T15:41:02;16.90;98.90
14529;DHT22;7351;51.194;4.098;2023-03-01T15:43:44;16.90;98.90
14529;DHT22;7351;51.194;4.098;2023-03-01T15:46:23;16.90;98.90
14529;DHT22;7351;51.194;4.098;2023-03-01T15:48:53;16.90;98.90
14529;DHT22;7351;51.194;4.098;2023-03-01T15:51:31;16.80;98.80
14529;DHT22;7351;51.194;4.098;2023-03-01T15:54:01;16.90;98.90
14529;DHT22;7351;51.194;4.098;2023-03-01T15:56:29;16.90;98.70
14529;DHT22;7351;51.194;4.098;2023-03-01T15:59:00;17.00;98.70
14529;DHT22;7351;51.194;4.098;2023-03-01T16:01:29;17.00;98.60
14529;DHT22;7351;51.194;4.098;2023-03-01T16:03:56;17.10;98.60
14529;DHT22;7351;51.194;4.098;2023-03-01T16:06:24;17.10;98.60
14529;DHT22;7351;51.194;4.098;2023-03-01T16:08:51;17.20;98.60
14529;DHT22;7351;51.194;4.098;2023-03-01T16:11:19;17.20;98.40
14529;DHT22;7351;51.194;4.098;2023-03-01T16:13:46;17.30;98.50
14529;DHT22;7351;51.194;4.098;2023-03-01T16:16:15;17.30;98.50
14529;DHT22;7351;51.194;4.098;2023-03-01T16:18:45;17.30;98.50